Weather History for Mojave, CA

Change the Weather History Date:

Friday, December 13, 2013

  Actual Average Record
Temperature  
Mean Temperature 48 °F -  
Max Temperature 60 °F 56 °F 74 °F (1988)
Min Temperature 35 °F 31 °F 15 °F (1972)
Degree Days  
Heating Degree Days 18    
Moisture  
Dew Point 13 °F    
Average Humidity 26    
Maximum Humidity 42    
Minimum Humidity 15    
Precipitation  
Precipitation 0.00 in - - ()
Sea Level Pressure  
Sea Level Pressure 30.19 in    
Wind  
Wind Speed 7 mph (NNW)    
Max Wind Speed 25 mph    
Max Gust Speed 33 mph    
Visibility 10 miles    
Events      
Averages and records for this station are not official NWS values.
T = Trace of Precipitation, MM = Missing Value Source: NWS Daily Summary

Daily Weather History Graph

Daily Weather History Graph

Search for Another Location

Airport:

Trip Planner

Search our weather history database for the weather conditions in past years. The results will help you decide how hot, cold, wet, or windy it might be!

Date:

Astronomy

Dec. 13, 2013 Rise Set
Actual Time 6:52 AM PST 4:41 PM PST
Civil Twilight 6:24 AM PST 5:09 PM PST
Nautical Twilight 5:52 AM PST 5:41 PM PST
Astronomical Twilight 5:21 AM PST 6:12 PM PST
Moon 2:22 PM PST (12/13) 3:25 AM PST (12/13)
Length of Visible Light 10h 45m
Length of Day
9h 49m
Waxing Gibbous, 88% of the Moon is Illuminated
Dec 13
Waxing Gibbous
Dec 17
Full
Dec 25
Last Quarter
Jan 1
New
Jan 7
First Quarter

Hourly Weather History & Observations

Time (PST) Temp. Windchill Dew Point Humidity Pressure Visibility Wind Dir Wind Speed Gust Speed Precip Events Conditions
12:15 AM 37.4 °F 33.8 °F 14.0 °F 38% 30.14 in 10.0 mi North 4.6 mph - N/A   Clear
12:35 AM 37.4 °F 34.9 °F 14.0 °F 38% 30.14 in 10.0 mi North 3.5 mph - N/A   Clear
12:55 AM 39.2 °F 33.6 °F 14.0 °F 36% 30.12 in 10.0 mi NNW 8.1 mph - N/A   Clear
1:15 AM 35.6 °F 29.2 °F 14.0 °F 41% 30.12 in 10.0 mi NNW 8.1 mph - N/A   Clear
1:35 AM 37.4 °F - 12.2 °F 36% 30.12 in 10.0 mi Calm Calm - N/A   Clear
1:55 AM 39.2 °F 34.2 °F 14.0 °F 36% 30.12 in 10.0 mi NE 6.9 mph - N/A   Clear
2:15 AM 37.4 °F 32.1 °F 12.2 °F 36% 30.13 in 10.0 mi NNE 6.9 mph - N/A   Clear
2:35 AM 39.2 °F 35.9 °F 12.2 °F 33% 30.13 in 10.0 mi NE 4.6 mph - N/A   Clear
2:55 AM 41.0 °F 39.0 °F 10.4 °F 29% 30.13 in 10.0 mi North 3.5 mph - N/A   Clear
3:15 AM 50.0 °F - 10.4 °F 20% 30.11 in 10.0 mi West 24.2 mph 33.4 mph N/A   Clear
3:35 AM 50.0 °F - 10.4 °F 20% 30.12 in 10.0 mi West 24.2 mph 28.8 mph N/A   Clear
3:55 AM 50.0 °F - 8.6 °F 19% 30.12 in 10.0 mi West 20.7 mph 32.2 mph N/A   Clear
4:15 AM 50.0 °F - 8.6 °F 19% 30.13 in 10.0 mi West 3.5 mph - N/A   Clear
4:35 AM 48.2 °F - 8.6 °F 20% 30.12 in 10.0 mi South 6.9 mph - N/A   Clear
4:55 AM 50.0 °F - 8.6 °F 19% 30.11 in 10.0 mi South 11.5 mph 20.7 mph N/A   Clear
5:15 AM 50.0 °F - 8.6 °F 19% 30.11 in 10.0 mi WSW 16.1 mph 21.9 mph N/A   Clear
5:35 AM 51.8 °F - 8.6 °F 18% 30.12 in 10.0 mi West 11.5 mph - N/A   Clear
5:55 AM 48.2 °F - 10.4 °F 22% 30.12 in 10.0 mi West 25.3 mph 29.9 mph N/A   Clear
6:15 AM 48.2 °F - 10.4 °F 22% 30.14 in 10.0 mi WSW 16.1 mph 27.6 mph N/A   Clear
6:35 AM 48.2 °F - 10.4 °F 22% 30.14 in 10.0 mi WSW 15.0 mph - N/A   Clear
6:55 AM 48.2 °F - 10.4 °F 22% 30.14 in 10.0 mi Calm Calm - N/A   Clear
7:15 AM 48.2 °F - 10.4 °F 22% 30.15 in 10.0 mi NNE 9.2 mph 16.1 mph N/A   Clear
7:35 AM 39.2 °F 35.9 °F 10.4 °F 31% 30.17 in 10.0 mi NE 4.6 mph - N/A   Clear
7:55 AM 41.0 °F - 12.2 °F 31% 30.18 in 10.0 mi Calm Calm - N/A   Clear
8:15 AM 44.6 °F - 14.0 °F 29% 30.18 in 10.0 mi Calm Calm - N/A   Clear
8:35 AM 48.2 °F - 14.0 °F 25% 30.19 in 10.0 mi Calm Calm - N/A   Clear
8:55 AM 48.2 °F - 14.0 °F 25% 30.20 in 10.0 mi East 4.6 mph - N/A   Clear
9:15 AM 44.6 °F 42.2 °F 14.0 °F 29% 30.21 in 10.0 mi ENE 4.6 mph - N/A   Clear
9:35 AM 46.4 °F 42.9 °F 14.0 °F 27% 30.22 in 10.0 mi NE 6.9 mph - N/A   Clear
9:55 AM 50.0 °F - 14.0 °F 24% 30.22 in 10.0 mi NNE 9.2 mph - N/A   Clear
10:15 AM 50.0 °F - 12.2 °F 22% 30.23 in 10.0 mi North 6.9 mph - N/A   Clear
10:35 AM 53.6 °F - 14.0 °F 21% 30.23 in 10.0 mi North 3.5 mph - N/A   Clear
10:55 AM 53.6 °F - 14.0 °F 21% 30.23 in 10.0 mi East 10.4 mph - N/A   Clear
11:15 AM 50.0 °F - 12.2 °F 22% 30.22 in 10.0 mi ESE 8.1 mph - N/A   Clear
11:35 AM 53.6 °F - 10.4 °F 18% 30.21 in 10.0 mi East 6.9 mph - N/A   Clear
11:55 AM 55.4 °F - 10.4 °F 17% 30.21 in 10.0 mi East 5.8 mph - N/A   Clear
12:15 PM 55.4 °F - 10.4 °F 17% 30.20 in 10.0 mi Calm Calm - N/A   Clear
12:35 PM 57.2 °F - 10.4 °F 16% 30.19 in 10.0 mi Calm Calm - N/A   Clear
12:55 PM 57.2 °F - 12.2 °F 17% 30.18 in 10.0 mi Calm Calm - N/A   Clear
1:15 PM 57.2 °F - 12.2 °F 17% 30.18 in 10.0 mi Calm Calm - N/A   Clear
1:35 PM 59.0 °F - 12.2 °F 16% 30.17 in 10.0 mi Calm Calm - N/A   Clear
1:55 PM 59.0 °F - 14.0 °F 17% 30.17 in 10.0 mi Calm Calm - N/A   Clear
2:15 PM 59.0 °F - 14.0 °F 17% 30.16 in 10.0 mi Calm Calm - N/A   Clear
2:35 PM 60.8 °F - 14.0 °F 16% 30.16 in 10.0 mi Calm Calm - N/A   Clear
2:55 PM 60.8 °F - 12.2 °F 15% 30.17 in 10.0 mi East 4.6 mph - N/A   Clear
3:15 PM 60.8 °F - 12.2 °F 15% 30.17 in 10.0 mi ENE 5.8 mph - N/A   Clear
3:35 PM 59.0 °F - 10.4 °F 15% 30.18 in 10.0 mi ENE 4.6 mph - N/A   Clear
3:55 PM 59.0 °F - 10.4 °F 15% 30.18 in 10.0 mi NE 4.6 mph - N/A   Clear
4:15 PM 59.0 °F - 12.2 °F 16% 30.18 in 10.0 mi NW 6.9 mph - N/A   Clear
4:35 PM 55.4 °F - 14.0 °F 20% 30.18 in 10.0 mi WNW 6.9 mph - N/A   Clear
4:55 PM 51.8 °F - 14.0 °F 22% 30.19 in 10.0 mi Calm Calm - N/A   Clear
5:15 PM 50.0 °F - 15.8 °F 26% 30.19 in 10.0 mi Calm Calm - N/A   Clear
5:35 PM 50.0 °F - 14.0 °F 24% 30.20 in 10.0 mi Calm Calm - N/A   Clear
5:55 PM 46.4 °F 44.3 °F 15.8 °F 29% 30.21 in 10.0 mi SW 4.6 mph - N/A   Clear
6:15 PM 44.6 °F 42.2 °F 15.8 °F 31% 30.22 in 10.0 mi West 4.6 mph - N/A   Clear
6:35 PM 44.6 °F 41.4 °F 14.0 °F 29% 30.23 in 10.0 mi West 5.8 mph - N/A   Clear
6:55 PM 44.6 °F 40.7 °F 15.8 °F 31% 30.24 in 10.0 mi NW 6.9 mph - N/A   Clear
7:15 PM 44.6 °F 39.7 °F 15.8 °F 31% 30.24 in 10.0 mi NW 9.2 mph - N/A   Clear
7:35 PM 44.6 °F 42.2 °F 14.0 °F 29% 30.25 in 10.0 mi NW 4.6 mph - N/A   Clear
7:55 PM 44.6 °F 42.2 °F 15.8 °F 31% 30.26 in 10.0 mi NW 4.6 mph - N/A   Clear
8:15 PM 42.8 °F 39.3 °F 15.8 °F 34% 30.27 in 10.0 mi NW 5.8 mph - N/A   Clear
8:35 PM 41.0 °F 34.7 °F 15.8 °F 36% 30.27 in 10.0 mi NW 10.4 mph - N/A   Clear
8:55 PM 41.0 °F 35.2 °F 15.8 °F 36% 30.28 in 10.0 mi NNW 9.2 mph - N/A   Clear
9:15 PM 41.0 °F 35.2 °F 17.6 °F 39% 30.29 in 10.0 mi NNW 9.2 mph - N/A   Clear
9:35 PM 41.0 °F 36.4 °F 17.6 °F 39% 30.30 in 10.0 mi NNW 6.9 mph - N/A   Clear
9:55 PM 41.0 °F 35.8 °F 17.6 °F 39% 30.30 in 10.0 mi North 8.1 mph - N/A   Clear
10:15 PM 42.8 °F 36.6 °F 15.8 °F 34% 30.31 in 10.0 mi North 11.5 mph - N/A   Clear
10:35 PM 42.8 °F 37.0 °F 15.8 °F 34% 30.31 in 10.0 mi North 10.4 mph - N/A   Clear
10:55 PM 41.0 °F 36.4 °F 17.6 °F 39% 30.32 in 10.0 mi NNW 6.9 mph - N/A   Clear
11:15 PM 39.2 °F 33.6 °F 17.6 °F 42% 30.32 in 10.0 mi NNW 8.1 mph - N/A   Clear
11:35 PM 39.2 °F 33.6 °F 17.6 °F 42% 30.33 in 10.0 mi NNW 8.1 mph - N/A   Clear
11:55 PM 39.2 °F 33.0 °F 15.8 °F 39% 30.33 in 10.0 mi North 9.2 mph - N/A   Clear